sensor_id;sensor_type;location;lat;lon;timestamp;pressure;altitude;pressure_sealevel;temperature;humidity
8451;BME280;4262;50.980;13.892;2023-02-12T06:00:50;50288.78;;;-142.97;23.60
8451;BME280;4262;50.980;13.892;2023-02-12T06:03:16;50310.25;;;-142.97;23.46
8451;BME280;4262;50.980;13.892;2023-02-12T06:05:49;50316.09;;;-142.97;23.35
8451;BME280;4262;50.980;13.892;2023-02-12T06:08:16;50290.75;;;-142.97;23.50
8451;BME280;4262;50.980;13.892;2023-02-12T06:10:44;50304.38;;;-142.97;23.74
8451;BME280;4262;50.980;13.892;2023-02-12T06:13:11;50312.19;;;-142.97;23.64
8451;BME280;4262;50.980;13.892;2023-02-12T06:15:37;50318.03;;;-142.97;23.57
8451;BME280;4262;50.980;13.892;2023-02-12T06:18:05;50335.59;;;-142.97;23.63
8451;BME280;4262;50.980;13.892;2023-02-12T06:20:32;50314.13;;;-142.97;23.44
8451;BME280;4262;50.980;13.892;2023-02-12T06:22:59;50308.28;;;-142.97;23.41
8451;BME280;4262;50.980;13.892;2023-02-12T06:25:27;50304.38;;;-142.97;23.35
8451;BME280;4262;50.980;13.892;2023-02-12T06:27:54;50273.19;;;-142.97;23.19
8451;BME280;4262;50.980;13.892;2023-02-12T06:30:21;50290.75;;;-142.97;23.15
8451;BME280;4262;50.980;13.892;2023-02-12T06:32:48;50290.75;;;-142.97;23.28
8451;BME280;4262;50.980;13.892;2023-02-12T06:35:16;50294.63;;;-142.97;23.35
8451;BME280;4262;50.980;13.892;2023-02-12T06:37:43;50290.75;;;-142.97;23.18
8451;BME280;4262;50.980;13.892;2023-02-12T06:40:12;50288.78;;;-142.97;23.20
8451;BME280;4262;50.980;13.892;2023-02-12T06:42:38;50300.50;;;-142.97;23.29
8451;BME280;4262;50.980;13.892;2023-02-12T06:45:06;50294.63;;;-142.97;23.10
8451;BME280;4262;50.980;13.892;2023-02-12T06:47:32;50300.50;;;-142.97;23.19
8451;BME280;4262;50.980;13.892;2023-02-12T06:49:59;50306.34;;;-142.97;23.30
8451;BME280;4262;50.980;13.892;2023-02-12T06:52:27;50327.78;;;-142.97;23.28
8451;BME280;4262;50.980;13.892;2023-02-12T06:54:54;50281.00;;;-142.97;23.25
8451;BME280;4262;50.980;13.892;2023-02-12T06:57:21;50308.28;;;-142.97;23.27
8451;BME280;4262;50.980;13.892;2023-02-12T06:59:48;50284.91;;;-142.97;23.27
8451;BME280;4262;50.980;13.892;2023-02-12T07:02:14;50296.59;;;-142.97;23.41
8451;BME280;4262;50.980;13.892;2023-02-12T07:04:41;50290.75;;;-142.97;23.39
8451;BME280;4262;50.980;13.892;2023-02-12T07:07:07;50302.44;;;-142.97;22.94
8451;BME280;4262;50.980;13.892;2023-02-12T07:09:35;50302.44;;;-142.97;23.22
8451;BME280;4262;50.980;13.892;2023-02-12T07:12:03;50300.50;;;-142.97;23.21
8451;BME280;4262;50.980;13.892;2023-02-12T07:14:29;50292.69;;;-142.97;23.03
8451;BME280;4262;50.980;13.892;2023-02-12T07:16:56;50282.94;;;-142.97;23.18
8451;BME280;4262;50.980;13.892;2023-02-12T07:19:23;50296.59;;;-142.97;23.47
8451;BME280;4262;50.980;13.892;2023-02-12T07:21:50;50306.34;;;-142.97;23.27
8451;BME280;4262;50.980;13.892;2023-02-12T07:24:16;50294.63;;;-142.97;22.96
8451;BME280;4262;50.980;13.892;2023-02-12T07:26:44;50296.59;;;-142.97;22.83
8451;BME280;4262;50.980;13.892;2023-02-12T07:29:11;50290.75;;;-142.97;22.89
8451;BME280;4262;50.980;13.892;2023-02-12T07:31:39;50298.53;;;-142.97;22.67
8451;BME280;4262;50.980;13.892;2023-02-12T07:34:05;50286.84;;;-142.97;23.03
8451;BME280;4262;50.980;13.892;2023-02-12T07:36:34;50271.25;;;-142.97;22.67
8451;BME280;4262;50.980;13.892;2023-02-12T07:39:01;50300.50;;;-142.97;22.95
8451;BME280;4262;50.980;13.892;2023-02-12T07:41:32;50284.91;;;-142.97;22.76
8451;BME280;4262;50.980;13.892;2023-02-12T07:44:02;50282.94;;;-142.97;23.02
8451;BME280;4262;50.980;13.892;2023-02-12T07:46:34;50306.34;;;-142.97;22.79
8451;BME280;4262;50.980;13.892;2023-02-12T07:49:03;50304.38;;;-142.97;22.85
8451;BME280;4262;50.980;13.892;2023-02-12T07:51:31;50282.94;;;-142.97;22.85
8451;BME280;4262;50.980;13.892;2023-02-12T07:53:58;50294.63;;;-142.97;22.54
8451;BME280;4262;50.980;13.892;2023-02-12T07:56:29;50329.72;;;-142.97;22.88
8451;BME280;4262;50.980;13.892;2023-02-12T07:58:58;50296.59;;;-142.97;22.90
8451;BME280;4262;50.980;13.892;2023-02-12T08:01:28;50300.50;;;-142.97;22.68
8451;BME280;4262;50.980;13.892;2023-02-12T08:03:57;50314.13;;;-142.97;22.84
8451;BME280;4262;50.980;13.892;2023-02-12T08:06:27;50279.03;;;-142.97;22.82
8451;BME280;4262;50.980;13.892;2023-02-12T08:08:58;50312.19;;;-142.97;22.96
8451;BME280;4262;50.980;13.892;2023-02-12T08:11:27;50273.19;;;-142.97;22.86
8451;BME280;4262;50.980;13.892;2023-02-12T08:13:55;50265.41;;;-142.97;22.63
8451;BME280;4262;50.980;13.892;2023-02-12T08:16:24;50275.16;;;-142.97;22.63
8451;BME280;4262;50.980;13.892;2023-02-12T08:18:54;50279.03;;;-142.97;23.13
8451;BME280;4262;50.980;13.892;2023-02-12T08:21:23;50271.25;;;-142.97;22.93
8451;BME280;4262;50.980;13.892;2023-02-12T08:23:52;50296.59;;;-142.97;22.90
8451;BME280;4262;50.980;13.892;2023-02-12T08:26:21;50308.28;;;-142.97;23.07
8451;BME280;4262;50.980;13.892;2023-02-12T08:28:50;50290.75;;;-142.97;22.98
8451;BME280;4262;50.980;13.892;2023-02-12T08:31:20;50279.03;;;-142.97;23.09
8451;BME280;4262;50.980;13.892;2023-02-12T08:33:48;50282.94;;;-142.97;23.32
8451;BME280;4262;50.980;13.892;2023-02-12T08:36:19;50284.91;;;-142.97;23.25
8451;BME280;4262;50.980;13.892;2023-02-12T08:38:47;50292.69;;;-142.97;23.06
8451;BME280;4262;50.980;13.892;2023-02-12T08:41:17;50288.78;;;-142.97;23.20
8451;BME280;4262;50.980;13.892;2023-02-12T08:43:44;50282.94;;;-142.97;23.22
8451;BME280;4262;50.980;13.892;2023-02-12T08:46:14;50281.00;;;-142.97;23.34
8451;BME280;4262;50.980;13.892;2023-02-12T08:48:41;50302.44;;;-142.97;23.05
8451;BME280;4262;50.980;13.892;2023-02-12T08:51:10;50290.75;;;-142.97;23.10
8451;BME280;4262;50.980;13.892;2023-02-12T08:53:40;50290.75;;;-142.97;23.61
8451;BME280;4262;50.980;13.892;2023-02-12T08:56:10;50284.91;;;-142.97;23.68
8451;BME280;4262;50.980;13.892;2023-02-12T08:58:37;50296.59;;;-142.97;23.45
8451;BME280;4262;50.980;13.892;2023-02-12T09:01:08;50292.69;;;-142.97;23.08
8451;BME280;4262;50.980;13.892;2023-02-12T09:03:35;50304.38;;;-142.97;23.25
8451;BME280;4262;50.980;13.892;2023-02-12T09:06:03;50281.00;;;-142.97;23.76
8451;BME280;4262;50.980;13.892;2023-02-12T09:08:32;50290.75;;;-142.97;24.27
8451;BME280;4262;50.980;13.892;2023-02-12T09:11:05;50271.25;;;-142.97;23.48
8451;BME280;4262;50.980;13.892;2023-02-12T09:13:32;50286.84;;;-142.97;23.68
8451;BME280;4262;50.980;13.892;2023-02-12T09:16:00;50288.78;;;-142.97;23.54
8451;BME280;4262;50.980;13.892;2023-02-12T09:18:29;50312.19;;;-142.97;23.77
8451;BME280;4262;50.980;13.892;2023-02-12T09:21:01;50279.03;;;-142.97;23.66
8451;BME280;4262;50.980;13.892;2023-02-12T09:23:28;50263.44;;;-142.97;23.35
8451;BME280;4262;50.980;13.892;2023-02-12T09:25:55;50286.84;;;-142.97;23.46
8451;BME280;4262;50.980;13.892;2023-02-12T09:28:25;50255.66;;;-142.97;24.12
8451;BME280;4262;50.980;13.892;2023-02-12T09:30:51;50298.53;;;-142.97;23.54
8451;BME280;4262;50.980;13.892;2023-02-12T09:33:18;50290.75;;;-142.97;23.71
8451;BME280;4262;50.980;13.892;2023-02-12T09:35:47;50279.03;;;-142.97;23.54
8451;BME280;4262;50.980;13.892;2023-02-12T09:38:15;50296.59;;;-142.97;23.39
8451;BME280;4262;50.980;13.892;2023-02-12T09:41:02;50292.69;;;-142.97;24.05
8451;BME280;4262;50.980;13.892;2023-02-12T09:43:39;50273.19;;;-142.97;23.88
8451;BME280;4262;50.980;13.892;2023-02-12T09:46:12;50320.00;;;-142.97;23.59
8451;BME280;4262;50.980;13.892;2023-02-12T09:48:52;50257.59;;;-142.97;24.24
8451;BME280;4262;50.980;13.892;2023-02-12T09:51:21;50275.16;;;-142.97;23.92
8451;BME280;4262;50.980;13.892;2023-02-12T09:54:02;50282.94;;;-142.97;24.02
8451;BME280;4262;50.980;13.892;2023-02-12T09:56:33;50290.75;;;-142.97;23.85
8451;BME280;4262;50.980;13.892;2023-02-12T09:59:04;50294.63;;;-142.97;23.90
8451;BME280;4262;50.980;13.892;2023-02-12T10:01:32;50259.56;;;-142.97;24.08
8451;BME280;4262;50.980;13.892;2023-02-12T10:03:59;50279.03;;;-142.97;24.48
8451;BME280;4262;50.980;13.892;2023-02-12T10:06:30;50314.13;;;-142.97;24.49
8451;BME280;4262;50.980;13.892;2023-02-12T10:09:04;50318.03;;;-142.97;24.47
8451;BME280;4262;50.980;13.892;2023-02-12T10:11:49;50298.53;;;-142.97;24.52
8451;BME280;4262;50.980;13.892;2023-02-12T10:14:33;50316.09;;;-142.97;24.01
8451;BME280;4262;50.980;13.892;2023-02-12T10:17:12;50290.75;;;-142.97;24.14
8451;BME280;4262;50.980;13.892;2023-02-12T10:19:54;50282.94;;;-142.97;23.96
8451;BME280;4262;50.980;13.892;2023-02-12T10:22:31;50271.25;;;-142.97;23.73
8451;BME280;4262;50.980;13.892;2023-02-12T10:25:11;50282.94;;;-142.97;23.38
8451;BME280;4262;50.980;13.892;2023-02-12T10:27:48;50292.69;;;-142.97;23.48
8451;BME280;4262;50.980;13.892;2023-02-12T10:30:19;50312.19;;;-142.97;23.56
8451;BME280;4262;50.980;13.892;2023-02-12T10:32:50;50257.59;;;-142.97;23.40
8451;BME280;4262;50.980;13.892;2023-02-12T10:35:20;50281.00;;;-142.97;23.86
8451;BME280;4262;50.980;13.892;2023-02-12T10:37:53;50275.16;;;-142.97;23.96
8451;BME280;4262;50.980;13.892;2023-02-12T10:40:25;50294.63;;;-142.97;24.12
8451;BME280;4262;50.980;13.892;2023-02-12T10:42:55;50288.78;;;-142.97;23.61
8451;BME280;4262;50.980;13.892;2023-02-12T10:45:29;50306.34;;;-142.97;24.55
8451;BME280;4262;50.980;13.892;2023-02-12T10:48:04;50290.75;;;-142.97;24.21
8451;BME280;4262;50.980;13.892;2023-02-12T10:50:47;50281.00;;;-142.97;23.73
8451;BME280;4262;50.980;13.892;2023-02-12T10:53:20;50288.78;;;-142.97;24.00
8451;BME280;4262;50.980;13.892;2023-02-12T10:55:47;50273.19;;;-142.97;23.53
8451;BME280;4262;50.980;13.892;2023-02-12T10:58:19;50281.00;;;-142.97;23.22
8451;BME280;4262;50.980;13.892;2023-02-12T11:00:55;50345.34;;;-142.97;23.78
8451;BME280;4262;50.980;13.892;2023-02-12T11:03:28;50284.91;;;-142.97;23.90
8451;BME280;4262;50.980;13.892;2023-02-12T11:06:11;50279.03;;;-142.97;23.44
8451;BME280;4262;50.980;13.892;2023-02-12T11:08:41;50288.78;;;-142.97;23.45
8451;BME280;4262;50.980;13.892;2023-02-12T11:11:11;50300.50;;;-142.97;23.39
8451;BME280;4262;50.980;13.892;2023-02-12T11:13:41;50290.75;;;-142.97;23.18
8451;BME280;4262;50.980;13.892;2023-02-12T11:16:11;50279.03;;;-142.97;23.51
8451;BME280;4262;50.980;13.892;2023-02-12T11:18:40;50271.25;;;-142.97;23.47
8451;BME280;4262;50.980;13.892;2023-02-12T11:21:09;50308.28;;;-142.97;23.56
8451;BME280;4262;50.980;13.892;2023-02-12T11:23:38;50261.50;;;-142.97;23.32
8451;BME280;4262;50.980;13.892;2023-02-12T11:26:06;50271.25;;;-142.97;23.22
8451;BME280;4262;50.980;13.892;2023-02-12T11:28:35;50282.94;;;-142.97;23.11
8451;BME280;4262;50.980;13.892;2023-02-12T11:31:03;50275.16;;;-142.97;22.90
8451;BME280;4262;50.980;13.892;2023-02-12T11:34:06;50261.50;;;-142.97;22.68
8451;BME280;4262;50.980;13.892;2023-02-12T11:36:36;50286.84;;;-142.97;22.80
8451;BME280;4262;50.980;13.892;2023-02-12T11:39:05;50296.59;;;-142.97;23.45
8451;BME280;4262;50.980;13.892;2023-02-12T11:41:34;50300.50;;;-142.97;23.34
8451;BME280;4262;50.980;13.892;2023-02-12T11:44:09;50279.03;;;-142.97;22.88
8451;BME280;4262;50.980;13.892;2023-02-12T11:46:37;50257.59;;;-142.97;23.03
8451;BME280;4262;50.980;13.892;2023-02-12T11:49:18;50273.19;;;-142.97;22.98
8451;BME280;4262;50.980;13.892;2023-02-12T11:51:47;50271.25;;;-142.97;22.76
8451;BME280;4262;50.980;13.892;2023-02-12T11:54:19;50269.28;;;-142.97;22.71
8451;BME280;4262;50.980;13.892;2023-02-12T11:56:47;50279.03;;;-142.97;22.61
8451;BME280;4262;50.980;13.892;2023-02-12T11:59:30;50284.91;;;-142.97;22.91
8451;BME280;4262;50.980;13.892;2023-02-12T12:02:01;50263.44;;;-142.97;22.53
8451;BME280;4262;50.980;13.892;2023-02-12T12:04:32;50308.28;;;-142.97;23.01
8451;BME280;4262;50.980;13.892;2023-02-12T12:07:04;50259.56;;;-142.97;22.63
8451;BME280;4262;50.980;13.892;2023-02-12T12:09:39;50298.53;;;-142.97;22.67
8451;BME280;4262;50.980;13.892;2023-02-12T12:12:11;50304.38;;;-142.97;23.04
8451;BME280;4262;50.980;13.892;2023-02-12T12:14:43;50294.63;;;-142.97;22.83
8451;BME280;4262;50.980;13.892;2023-02-12T12:17:36;50267.34;;;-142.97;22.67
8451;BME280;4262;50.980;13.892;2023-02-12T12:20:26;50298.53;;;-142.97;22.74
8451;BME280;4262;50.980;13.892;2023-02-12T12:22:59;50288.78;;;-142.97;22.70
8451;BME280;4262;50.980;13.892;2023-02-12T12:25:31;50275.16;;;-142.97;22.49
8451;BME280;4262;50.980;13.892;2023-02-12T12:28:11;50279.03;;;-142.97;22.64
8451;BME280;4262;50.980;13.892;2023-02-12T12:30:49;50286.84;;;-142.97;22.59
8451;BME280;4262;50.980;13.892;2023-02-12T12:33:24;50279.03;;;-142.97;22.63
8451;BME280;4262;50.980;13.892;2023-02-12T12:36:01;50273.19;;;-142.97;22.61
8451;BME280;4262;50.980;13.892;2023-02-12T12:38:40;50247.84;;;-142.97;22.45
8451;BME280;4262;50.980;13.892;2023-02-12T12:41:21;50288.78;;;-142.97;22.62
8451;BME280;4262;50.980;13.892;2023-02-12T12:44:02;50277.09;;;-142.97;22.81
8451;BME280;4262;50.980;13.892;2023-02-12T12:46:38;50308.28;;;-142.97;23.03
8451;BME280;4262;50.980;13.892;2023-02-12T12:49:26;50294.63;;;-142.97;24.31
8451;BME280;4262;50.980;13.892;2023-02-12T12:52:08;50288.78;;;-142.97;24.33
8451;BME280;4262;50.980;13.892;2023-02-12T12:54:50;50282.94;;;-142.97;23.39
8451;BME280;4262;50.980;13.892;2023-02-12T12:57:34;50294.63;;;-142.97;22.84
8451;BME280;4262;50.980;13.892;2023-02-12T13:00:18;50271.25;;;-142.97;23.03
8451;BME280;4262;50.980;13.892;2023-02-12T13:03:17;50302.44;;;-142.97;22.68
8451;BME280;4262;50.980;13.892;2023-02-12T13:06:07;50273.19;;;-142.97;22.73
8451;BME280;4262;50.980;13.892;2023-02-12T13:08:57;50265.41;;;-142.97;23.29
8451;BME280;4262;50.980;13.892;2023-02-12T13:11:38;50275.16;;;-142.97;22.74
8451;BME280;4262;50.980;13.892;2023-02-12T13:14:18;50281.00;;;-142.97;23.05
8451;BME280;4262;50.980;13.892;2023-02-12T13:16:54;50292.69;;;-142.97;23.22
8451;BME280;4262;50.980;13.892;2023-02-12T13:19:30;50263.44;;;-142.97;23.20
8451;BME280;4262;50.980;13.892;2023-02-12T13:22:01;50294.63;;;-142.97;23.31
8451;BME280;4262;50.980;13.892;2023-02-12T13:24:37;50265.41;;;-142.97;23.10
8451;BME280;4262;50.980;13.892;2023-02-12T13:27:13;50265.41;;;-142.97;23.65
8451;BME280;4262;50.980;13.892;2023-02-12T13:29:44;50294.63;;;-142.97;23.42
8451;BME280;4262;50.980;13.892;2023-02-12T13:32:16;50321.94;;;-142.97;23.69
8451;BME280;4262;50.980;13.892;2023-02-12T13:34:45;50292.69;;;-142.97;24.19
8451;BME280;4262;50.980;13.892;2023-02-12T13:37:16;50273.19;;;-142.97;24.51
8451;BME280;4262;50.980;13.892;2023-02-12T13:39:46;50288.78;;;-142.97;24.36
8451;BME280;4262;50.980;13.892;2023-02-12T13:42:26;50310.25;;;-142.97;24.29
8451;BME280;4262;50.980;13.892;2023-02-12T13:45:03;50300.50;;;-142.97;25.23
8451;BME280;4262;50.980;13.892;2023-02-12T13:47:39;50277.09;;;-142.97;24.97
8451;BME280;4262;50.980;13.892;2023-02-12T13:50:26;50259.56;;;-142.97;24.50
8451;BME280;4262;50.980;13.892;2023-02-12T13:53:00;50279.03;;;-142.97;25.08
8451;BME280;4262;50.980;13.892;2023-02-12T13:55:32;50306.34;;;-142.97;24.98
8451;BME280;4262;50.980;13.892;2023-02-12T13:58:37;50310.25;;;-142.97;24.00
8451;BME280;4262;50.980;13.892;2023-02-12T14:01:05;50273.19;;;-142.97;24.17
8451;BME280;4262;50.980;13.892;2023-02-12T14:03:33;50296.59;;;-142.97;23.97
8451;BME280;4262;50.980;13.892;2023-02-12T14:06:09;50286.84;;;-142.97;24.89
8451;BME280;4262;50.980;13.892;2023-02-12T14:08:39;50300.50;;;-142.97;25.21
8451;BME280;4262;50.980;13.892;2023-02-12T14:11:09;50277.09;;;-142.97;25.89
8451;BME280;4262;50.980;13.892;2023-02-12T14:13:47;50277.09;;;-142.97;24.60
8451;BME280;4262;50.980;13.892;2023-02-12T14:16:36;50275.16;;;-142.97;24.00
8451;BME280;4262;50.980;13.892;2023-02-12T14:19:35;50279.03;;;-142.97;24.80
8451;BME280;4262;50.980;13.892;2023-02-12T14:22:09;50277.09;;;-142.97;24.34
8451;BME280;4262;50.980;13.892;2023-02-12T14:24:47;50263.44;;;-142.97;25.05
8451;BME280;4262;50.980;13.892;2023-02-12T14:27:36;50298.53;;;-142.97;24.46
8451;BME280;4262;50.980;13.892;2023-02-12T14:30:29;50286.84;;;-142.97;24.09
8451;BME280;4262;50.980;13.892;2023-02-12T14:35:47;50286.84;;;-142.97;24.20
8451;BME280;4262;50.980;13.892;2023-02-12T14:39:03;50310.25;;;-142.97;24.12
8451;BME280;4262;50.980;13.892;2023-02-12T14:41:34;50269.28;;;-142.97;23.68
8451;BME280;4262;50.980;13.892;2023-02-12T14:44:47;50288.78;;;-142.97;23.84
8451;BME280;4262;50.980;13.892;2023-02-12T14:50:22;50314.13;;;-142.97;23.32
8451;BME280;4262;50.980;13.892;2023-02-12T14:52:53;50286.84;;;-142.97;23.49
8451;BME280;4262;50.980;13.892;2023-02-12T14:55:26;50282.94;;;-142.97;23.81
8451;BME280;4262;50.980;13.892;2023-02-12T14:58:00;50281.00;;;-142.97;23.80
8451;BME280;4262;50.980;13.892;2023-02-12T15:00:33;50275.16;;;-142.97;23.78
8451;BME280;4262;50.980;13.892;2023-02-12T15:03:12;50273.19;;;-142.97;23.20
8451;BME280;4262;50.980;13.892;2023-02-12T15:05:44;50273.19;;;-142.97;22.86
8451;BME280;4262;50.980;13.892;2023-02-12T15:08:18;50286.84;;;-142.97;23.25
8451;BME280;4262;50.980;13.892;2023-02-12T15:10:53;50279.03;;;-142.97;23.11
8451;BME280;4262;50.980;13.892;2023-02-12T15:13:24;50286.84;;;-142.97;23.03
8451;BME280;4262;50.980;13.892;2023-02-12T15:15:59;50306.34;;;-142.97;22.64
8451;BME280;4262;50.980;13.892;2023-02-12T15:18:30;50284.91;;;-142.97;23.45
8451;BME280;4262;50.980;13.892;2023-02-12T15:21:10;50269.28;;;-142.97;23.73
8451;BME280;4262;50.980;13.892;2023-02-12T15:23:41;50300.50;;;-142.97;23.68
8451;BME280;4262;50.980;13.892;2023-02-12T15:26:13;50306.34;;;-142.97;23.48
8451;BME280;4262;50.980;13.892;2023-02-12T15:28:41;50286.84;;;-142.97;23.17
8451;BME280;4262;50.980;13.892;2023-02-12T15:31:14;50284.91;;;-142.97;23.37
8451;BME280;4262;50.980;13.892;2023-02-12T15:33:45;50249.81;;;-142.97;23.16
8451;BME280;4262;50.980;13.892;2023-02-12T15:36:17;50288.78;;;-142.97;23.44
8451;BME280;4262;50.980;13.892;2023-02-12T15:38:48;50282.94;;;-142.97;23.57
8451;BME280;4262;50.980;13.892;2023-02-12T15:41:27;50290.75;;;-142.97;23.32
8451;BME280;4262;50.980;13.892;2023-02-12T15:43:54;50263.44;;;-142.97;23.37
8451;BME280;4262;50.980;13.892;2023-02-12T15:46:22;50282.94;;;-142.97;23.16
8451;BME280;4262;50.980;13.892;2023-02-12T15:48:49;50271.25;;;-142.97;23.29
8451;BME280;4262;50.980;13.892;2023-02-12T15:51:23;50275.16;;;-142.97;23.41
8451;BME280;4262;50.980;13.892;2023-02-12T15:53:52;50290.75;;;-142.97;23.16
8451;BME280;4262;50.980;13.892;2023-02-12T15:56:21;50257.59;;;-142.97;23.78
8451;BME280;4262;50.980;13.892;2023-02-12T15:58:51;50286.84;;;-142.97;23.93
8451;BME280;4262;50.980;13.892;2023-02-12T16:01:20;50304.38;;;-142.97;23.67
8451;BME280;4262;50.980;13.892;2023-02-12T16:03:51;50267.34;;;-142.97;23.72
8451;BME280;4262;50.980;13.892;2023-02-12T16:06:20;50292.69;;;-142.97;23.79
8451;BME280;4262;50.980;13.892;2023-02-12T16:08:53;50286.84;;;-142.97;23.70
8451;BME280;4262;50.980;13.892;2023-02-12T16:11:23;50275.16;;;-142.97;23.51
8451;BME280;4262;50.980;13.892;2023-02-12T16:13:53;50277.09;;;-142.97;23.61
8451;BME280;4262;50.980;13.892;2023-02-12T16:16:23;50284.91;;;-142.97;23.88
8451;BME280;4262;50.980;13.892;2023-02-12T16:19:16;50288.78;;;-142.97;23.79
8451;BME280;4262;50.980;13.892;2023-02-12T16:21:45;50282.94;;;-142.97;23.82
8451;BME280;4262;50.980;13.892;2023-02-12T16:24:26;50304.38;;;-142.97;23.52
8451;BME280;4262;50.980;13.892;2023-02-12T16:26:55;50281.00;;;-142.97;23.10
8451;BME280;4262;50.980;13.892;2023-02-12T16:29:23;50282.94;;;-142.97;23.02
8451;BME280;4262;50.980;13.892;2023-02-12T16:31:58;50290.75;;;-142.97;22.96
8451;BME280;4262;50.980;13.892;2023-02-12T16:34:29;50269.28;;;-142.97;23.07
8451;BME280;4262;50.980;13.892;2023-02-12T16:36:56;50286.84;;;-142.97;23.53
8451;BME280;4262;50.980;13.892;2023-02-12T16:42:25;50294.63;;;-142.97;23.90
8451;BME280;4262;50.980;13.892;2023-02-12T16:44:54;50288.78;;;-142.97;23.71
8451;BME280;4262;50.980;13.892;2023-02-12T16:47:22;50271.25;;;-142.97;23.30
8451;BME280;4262;50.980;13.892;2023-02-12T16:49:55;50282.94;;;-142.97;23.28
8451;BME280;4262;50.980;13.892;2023-02-12T16:52:40;50296.59;;;-142.97;23.49
8451;BME280;4262;50.980;13.892;2023-02-12T16:55:12;50292.69;;;-142.97;23.21
8451;BME280;4262;50.980;13.892;2023-02-12T16:57:39;50279.03;;;-142.97;22.82
8451;BME280;4262;50.980;13.892;2023-02-12T17:00:07;50290.75;;;-142.97;23.15
8451;BME280;4262;50.980;13.892;2023-02-12T17:02:34;50279.03;;;-142.97;23.09
8451;BME280;4262;50.980;13.892;2023-02-12T17:05:03;50267.34;;;-142.97;22.74
8451;BME280;4262;50.980;13.892;2023-02-12T17:07:33;50288.78;;;-142.97;23.14
8451;BME280;4262;50.980;13.892;2023-02-12T17:10:00;50290.75;;;-142.97;23.06
8451;BME280;4262;50.980;13.892;2023-02-12T17:12:27;50296.59;;;-142.97;23.33
8451;BME280;4262;50.980;13.892;2023-02-12T17:14:54;50290.75;;;-142.97;23.15
8451;BME280;4262;50.980;13.892;2023-02-12T17:17:21;50290.75;;;-142.97;22.79
8451;BME280;4262;50.980;13.892;2023-02-12T17:19:49;50282.94;;;-142.97;23.11
8451;BME280;4262;50.980;13.892;2023-02-12T17:22:22;50296.59;;;-142.97;23.13
8451;BME280;4262;50.980;13.892;2023-02-12T17:24:51;50300.50;;;-142.97;22.73
8451;BME280;4262;50.980;13.892;2023-02-12T17:27:19;50269.28;;;-142.97;22.79
8451;BME280;4262;50.980;13.892;2023-02-12T17:29:47;50300.50;;;-142.97;22.83
8451;BME280;4262;50.980;13.892;2023-02-12T17:32:14;50282.94;;;-142.97;22.98
8451;BME280;4262;50.980;13.892;2023-02-12T17:34:41;50286.84;;;-142.97;22.78
8451;BME280;4262;50.980;13.892;2023-02-12T17:37:08;50281.00;;;-142.97;22.93
8451;BME280;4262;50.980;13.892;2023-02-12T17:39:38;50282.94;;;-142.97;22.89
8451;BME280;4262;50.980;13.892;2023-02-12T17:42:06;50273.19;;;-142.97;23.06
8451;BME280;4262;50.980;13.892;2023-02-12T17:44:33;50288.78;;;-142.97;23.40
8451;BME280;4262;50.980;13.892;2023-02-12T17:47:00;50300.50;;;-142.97;22.98
8451;BME280;4262;50.980;13.892;2023-02-12T17:49:27;50263.44;;;-142.97;23.17
8451;BME280;4262;50.980;13.892;2023-02-12T17:51:53;50300.50;;;-142.97;23.54
8451;BME280;4262;50.980;13.892;2023-02-12T17:54:20;50277.09;;;-142.97;23.38
8451;BME280;4262;50.980;13.892;2023-02-12T17:56:48;50277.09;;;-142.97;23.28
8451;BME280;4262;50.980;13.892;2023-02-12T17:59:15;50302.44;;;-142.97;22.96
8451;BME280;4262;50.980;13.892;2023-02-12T18:01:43;50259.56;;;-142.97;23.29
8451;BME280;4262;50.980;13.892;2023-02-12T18:04:10;50279.03;;;-142.97;23.15
8451;BME280;4262;50.980;13.892;2023-02-12T18:06:37;50261.50;;;-142.97;23.21
8451;BME280;4262;50.980;13.892;2023-02-12T18:09:05;50267.34;;;-142.97;23.32
8451;BME280;4262;50.980;13.892;2023-02-12T18:11:33;50281.00;;;-142.97;23.17
8451;BME280;4262;50.980;13.892;2023-02-12T18:14:01;50290.75;;;-142.97;23.25
8451;BME280;4262;50.980;13.892;2023-02-12T18:16:30;50321.94;;;-142.97;23.32
8451;BME280;4262;50.980;13.892;2023-02-12T18:19:00;50273.19;;;-142.97;23.24
8451;BME280;4262;50.980;13.892;2023-02-12T18:21:28;50298.53;;;-142.97;23.20
8451;BME280;4262;50.980;13.892;2023-02-12T18:23:55;50290.75;;;-142.97;23.27
8451;BME280;4262;50.980;13.892;2023-02-12T18:26:24;50275.16;;;-142.97;23.18
8451;BME280;4262;50.980;13.892;2023-02-12T18:28:52;50275.16;;;-142.97;22.99
8451;BME280;4262;50.980;13.892;2023-02-12T18:31:20;50277.09;;;-142.97;22.91
8451;BME280;4262;50.980;13.892;2023-02-12T18:33:47;50323.88;;;-142.97;23.37
8451;BME280;4262;50.980;13.892;2023-02-12T18:36:16;50286.84;;;-142.97;23.24
8451;BME280;4262;50.980;13.892;2023-02-12T18:38:44;50298.53;;;-142.97;23.08
8451;BME280;4262;50.980;13.892;2023-02-12T18:41:15;50314.13;;;-142.97;22.90
8451;BME280;4262;50.980;13.892;2023-02-12T18:43:42;50288.78;;;-142.97;23.06
8451;BME280;4262;50.980;13.892;2023-02-12T18:46:10;50271.25;;;-142.97;22.74
8451;BME280;4262;50.980;13.892;2023-02-12T18:48:39;50314.13;;;-142.97;22.39
8451;BME280;4262;50.980;13.892;2023-02-12T18:51:06;50308.28;;;-142.97;22.62
8451;BME280;4262;50.980;13.892;2023-02-12T18:53:33;50300.50;;;-142.97;22.76
8451;BME280;4262;50.980;13.892;2023-02-12T18:56:02;50306.34;;;-142.97;22.92
8451;BME280;4262;50.980;13.892;2023-02-12T18:58:29;50269.28;;;-142.97;22.79
8451;BME280;4262;50.980;13.892;2023-02-12T19:00:56;50304.38;;;-142.97;22.80
8451;BME280;4262;50.980;13.892;2023-02-12T19:03:22;50300.50;;;-142.97;23.01
8451;BME280;4262;50.980;13.892;2023-02-12T19:05:51;50282.94;;;-142.97;23.01
8451;BME280;4262;50.980;13.892;2023-02-12T19:08:18;50300.50;;;-142.97;23.31
8451;BME280;4262;50.980;13.892;2023-02-12T19:10:47;50290.75;;;-142.97;23.43
8451;BME280;4262;50.980;13.892;2023-02-12T19:13:14;50296.59;;;-142.97;23.39
8451;BME280;4262;50.980;13.892;2023-02-12T19:15:40;50312.19;;;-142.97;23.27
8451;BME280;4262;50.980;13.892;2023-02-12T19:18:07;50277.09;;;-142.97;23.73
8451;BME280;4262;50.980;13.892;2023-02-12T19:20:38;50275.16;;;-142.97;23.61
8451;BME280;4262;50.980;13.892;2023-02-12T19:23:06;50306.34;;;-142.97;23.44